Time;durP1;ratioP1;P1;durP2;ratioP2;P2;SDS_P1;SDS_P2;PMS_P1;PMS_P2;Temp;Humidity;BMP_temperature;BMP_pressure;BME280_temperature;BME280_humidity;BME280_pressure;Samples;Min_cycle;Max_cycle;Signal;HPM_P1;HPM_P2
2022/05/13 00:01:20;;;;;;;5.15;4.53;;;;;;;;;;5052857;28;20409;-83
2022/05/13 00:03:46;;;;;;;4.88;4.30;;;;;;;;;;5053479;28;20445;-83
2022/05/13 00:06:12;;;;;;;5.45;4.50;;;;;;;;;;5053411;28;20408;-82
2022/05/13 00:08:38;;;;;;;4.28;3.90;;;;;;;;;;5053385;28;20443;-82
2022/05/13 00:11:06;;;;;;;4.60;4.00;;;;;;;;;;5054062;28;20475;-83
2022/05/13 00:13:32;;;;;;;5.13;4.43;;;;;;;;;;5055389;28;20373;-83
2022/05/13 00:15:59;;;;;;;5.75;4.20;;;;;;;;;;5062408;28;20393;-83
2022/05/13 00:18:25;;;;;;;4.57;4.00;;;;;;;;;;5054037;28;20381;-82
2022/05/13 00:20:51;;;;;;;5.22;4.30;;;;;;;;;;5053955;28;20384;-82
2022/05/13 00:23:17;;;;;;;4.47;4.07;;;;;;;;;;5054062;28;20439;-83
2022/05/13 00:25:43;;;;;;;4.72;4.22;;;;;;;;;;5051847;28;20891;-83
2022/05/13 00:28:10;;;;;;;4.80;4.22;;;;;;;;;;5052531;28;20397;-83
2022/05/13 00:30:37;;;;;;;4.43;4.10;;;;;;;;;;5048788;28;20400;-82
2022/05/13 00:33:03;;;;;;;4.57;4.18;;;;;;;;;;5056445;28;20377;-82
2022/05/13 00:35:29;;;;;;;4.53;3.97;;;;;;;;;;5053634;28;20465;-83
2022/05/13 00:37:55;;;;;;;4.10;3.80;;;;;;;;;;5053556;28;20381;-82
2022/05/13 00:40:22;;;;;;;4.13;3.72;;;;;;;;;;5053475;28;20870;-82
2022/05/13 00:42:49;;;;;;;3.97;3.67;;;;;;;;;;5053554;28;20385;-83
2022/05/13 00:45:16;;;;;;;3.80;3.40;;;;;;;;;;5053719;28;20845;-82
2022/05/13 00:47:42;;;;;;;3.80;3.50;;;;;;;;;;5053365;28;20420;-82
2022/05/13 00:50:09;;;;;;;3.55;3.25;;;;;;;;;;5053609;28;20873;-82
2022/05/13 00:52:36;;;;;;;3.93;3.57;;;;;;;;;;5053394;28;20829;-82
2022/05/13 00:55:06;;;;;;;3.60;3.30;;;;;;;;;;5053780;28;20374;-82
2022/05/13 00:57:33;;;;;;;3.90;3.50;;;;;;;;;;5053355;28;20390;-83
2022/05/13 01:00:02;;;;;;;3.65;3.35;;;;;;;;;;5053178;28;20385;-82
2022/05/13 01:02:30;;;;;;;3.45;3.10;;;;;;;;;;5061515;28;20371;-83
2022/05/13 01:04:56;;;;;;;3.80;3.50;;;;;;;;;;5058589;28;20377;-83
2022/05/13 01:07:22;;;;;;;3.70;3.40;;;;;;;;;;5053137;28;20416;-82
2022/05/13 01:09:53;;;;;;;3.67;3.40;;;;;;;;;;5052916;28;20378;-83
2022/05/13 01:12:23;;;;;;;3.53;3.22;;;;;;;;;;5052960;28;20913;-83
2022/05/13 01:15:00;;;;;;;3.53;3.22;;;;;;;;;;5053149;28;20393;-83
2022/05/13 01:20:14;;;;;;;3.63;3.30;;;;;;;;;;5053257;28;20890;-82
2022/05/13 01:22:44;;;;;;;3.80;3.33;;;;;;;;;;5053062;28;20389;-83
2022/05/13 01:25:11;;;;;;;3.80;3.50;;;;;;;;;;5052794;28;20381;-83
2022/05/13 01:27:37;;;;;;;4.13;3.63;;;;;;;;;;5052705;28;20406;-82
2022/05/13 01:30:04;;;;;;;4.07;3.70;;;;;;;;;;5051470;28;20386;-83
2022/05/13 01:32:30;;;;;;;4.68;3.70;;;;;;;;;;5052601;28;20417;-82
2022/05/13 01:34:56;;;;;;;4.07;3.78;;;;;;;;;;5052543;28;20805;-82
2022/05/13 01:37:22;;;;;;;3.88;3.58;;;;;;;;;;5049966;28;20427;-82
2022/05/13 01:39:48;;;;;;;4.20;3.80;;;;;;;;;;5052417;28;20401;-82
2022/05/13 01:42:14;;;;;;;4.00;3.70;;;;;;;;;;5052607;28;20397;-82
2022/05/13 01:44:40;;;;;;;3.80;3.40;;;;;;;;;;5053261;28;20393;-83
2022/05/13 01:47:07;;;;;;;4.18;3.88;;;;;;;;;;5058315;28;20413;-82
2022/05/13 01:49:33;;;;;;;4.75;3.25;;;;;;;;;;5052269;28;20439;-83
2022/05/13 01:51:59;;;;;;;4.30;3.90;;;;;;;;;;5052812;28;20381;-83
2022/05/13 01:54:25;;;;;;;4.30;3.78;;;;;;;;;;5052306;28;20396;-82
2022/05/13 01:56:51;;;;;;;4.00;3.70;;;;;;;;;;5050817;28;20793;-83
2022/05/13 01:59:18;;;;;;;3.67;3.40;;;;;;;;;;5052345;28;20389;-82
2022/05/13 02:01:44;;;;;;;3.63;3.30;;;;;;;;;;5052145;28;20382;-82
2022/05/13 02:04:10;;;;;;;4.60;3.85;;;;;;;;;;5052231;28;20381;-82
2022/05/13 02:06:36;;;;;;;3.60;3.30;;;;;;;;;;5052151;28;20402;-83
2022/05/13 02:09:02;;;;;;;4.15;3.80;;;;;;;;;;5052146;28;20873;-82
2022/05/13 02:11:30;;;;;;;4.22;3.92;;;;;;;;;;5047478;28;20483;-82
2022/05/13 02:13:57;;;;;;;4.53;4.13;;;;;;;;;;5042694;28;20375;-82
2022/05/13 02:16:23;;;;;;;4.70;4.30;;;;;;;;;;5041142;28;20905;-82
2022/05/13 02:18:49;;;;;;;4.50;4.10;;;;;;;;;;5050289;28;20412;-82
2022/05/13 02:21:17;;;;;;;4.18;3.88;;;;;;;;;;5051543;28;20377;-82
2022/05/13 02:23:43;;;;;;;4.38;4.05;;;;;;;;;;5051139;28;20377;-83
2022/05/13 02:26:12;;;;;;;4.20;3.88;;;;;;;;;;5051749;28;20405;-82
2022/05/13 02:28:38;;;;;;;4.68;4.38;;;;;;;;;;5048056;28;20385;-82
2022/05/13 02:31:05;;;;;;;5.55;4.40;;;;;;;;;;5051706;28;20385;-82
2022/05/13 02:33:31;;;;;;;4.70;4.30;;;;;;;;;;5052050;28;20439;-82
2022/05/13 02:35:59;;;;;;;4.40;4.10;;;;;;;;;;5051861;28;20461;-83
2022/05/13 02:38:25;;;;;;;4.47;4.15;;;;;;;;;;5052834;28;20435;-82
2022/05/13 02:43:36;;;;;;;4.25;3.95;;;;;;;;;;5051976;28;20376;-82
2022/05/13 02:46:03;;;;;;;4.47;4.07;;;;;;;;;;5051695;28;20409;-82
2022/05/13 02:48:29;;;;;;;4.33;4.03;;;;;;;;;;5054543;28;20448;-82
2022/05/13 02:50:55;;;;;;;4.30;4.00;;;;;;;;;;5054461;28;20440;-82
2022/05/13 02:53:21;;;;;;;4.07;3.78;;;;;;;;;;5055673;28;20420;-82
2022/05/13 02:55:47;;;;;;;4.50;4.07;;;;;;;;;;5055528;28;20378;-82
2022/05/13 02:58:13;;;;;;;4.15;3.75;;;;;;;;;;5055383;28;20851;-82
2022/05/13 03:00:39;;;;;;;4.32;4.00;;;;;;;;;;5055608;28;20392;-82
2022/05/13 03:03:08;;;;;;;3.95;3.65;;;;;;;;;;5055506;28;20378;-82
2022/05/13 03:05:34;;;;;;;3.67;3.38;;;;;;;;;;5055617;28;20893;-82
2022/05/13 03:08:01;;;;;;;4.22;3.92;;;;;;;;;;5055454;28;20846;-82
2022/05/13 03:10:31;;;;;;;4.78;3.80;;;;;;;;;;5055118;28;20468;-82
2022/05/13 03:12:57;;;;;;;4.20;3.80;;;;;;;;;;5055325;28;20408;-82
2022/05/13 03:15:24;;;;;;;4.30;3.90;;;;;;;;;;5055222;28;20716;-81
2022/05/13 03:17:50;;;;;;;4.25;3.85;;;;;;;;;;5055160;28;20385;-82
2022/05/13 03:20:17;;;;;;;4.45;4.10;;;;;;;;;;5055063;28;20389;-82
2022/05/13 03:22:44;;;;;;;4.63;4.22;;;;;;;;;;5055112;28;20411;-82
2022/05/13 03:25:10;;;;;;;4.50;4.10;;;;;;;;;;5054998;28;20374;-82
2022/05/13 03:27:36;;;;;;;4.90;4.50;;;;;;;;;;5052587;28;20812;-82
2022/05/13 03:30:02;;;;;;;5.10;4.70;;;;;;;;;;5055093;28;20369;-82
2022/05/13 03:32:28;;;;;;;5.20;4.70;;;;;;;;;;5054456;28;20393;-82
2022/05/13 03:34:54;;;;;;;4.63;4.22;;;;;;;;;;5054843;28;20384;-82
2022/05/13 03:37:20;;;;;;;4.80;4.32;;;;;;;;;;5068424;28;20859;-82
2022/05/13 03:39:46;;;;;;;4.28;3.92;;;;;;;;;;5054639;28;20931;-82
2022/05/13 03:42:12;;;;;;;4.55;4.25;;;;;;;;;;5053308;28;20378;-82
2022/05/13 03:44:38;;;;;;;4.78;4.35;;;;;;;;;;5054648;28;20439;-82
2022/05/13 03:47:05;;;;;;;4.60;4.30;;;;;;;;;;5054423;28;20409;-82
2022/05/13 03:49:31;;;;;;;4.20;3.85;;;;;;;;;;5049546;28;20421;-82
2022/05/13 03:51:57;;;;;;;4.07;3.72;;;;;;;;;;5054151;28;20863;-82
2022/05/13 03:54:23;;;;;;;3.85;3.55;;;;;;;;;;5054056;28;20377;-82
2022/05/13 03:56:49;;;;;;;4.53;4.07;;;;;;;;;;5054259;28;20447;-82
2022/05/13 03:59:15;;;;;;;4.43;4.10;;;;;;;;;;5052855;28;20382;-82
2022/05/13 04:01:41;;;;;;;4.53;4.13;;;;;;;;;;5054048;28;20377;-82
2022/05/13 04:04:07;;;;;;;4.60;4.20;;;;;;;;;;5054775;28;20421;-83
2022/05/13 04:09:25;;;;;;;4.75;4.35;;;;;;;;;;5029674;28;20382;-82
2022/05/13 04:17:21;;;;;;;4.40;4.00;;;;;;;;;;5054002;28;20428;-83
2022/05/13 04:19:47;;;;;;;4.30;3.92;;;;;;;;;;5053257;28;20408;-82
2022/05/13 04:22:13;;;;;;;5.07;4.40;;;;;;;;;;5052684;28;20400;-83
2022/05/13 04:24:39;;;;;;;4.50;4.10;;;;;;;;;;5053961;28;20377;-82
2022/05/13 04:27:05;;;;;;;4.40;4.10;;;;;;;;;;5053738;28;20409;-83
2022/05/13 04:29:33;;;;;;;4.82;4.50;;;;;;;;;;5053785;28;20881;-82
2022/05/13 04:31:59;;;;;;;5.60;4.68;;;;;;;;;;5059741;28;20392;-83
2022/05/13 04:34:25;;;;;;;4.32;4.03;;;;;;;;;;5054337;28;20854;-82
2022/05/13 04:36:51;;;;;;;5.13;4.72;;;;;;;;;;5050826;28;20386;-82
2022/05/13 04:39:17;;;;;;;4.97;4.57;;;;;;;;;;5051779;28;20396;-82
2022/05/13 04:44:28;;;;;;;5.00;4.70;;;;;;;;;;5051777;28;20365;-83
2022/05/13 04:46:54;;;;;;;5.50;4.95;;;;;;;;;;5053529;28;20401;-82
2022/05/13 04:49:20;;;;;;;5.60;5.20;;;;;;;;;;5053467;28;20468;-82
2022/05/13 04:51:46;;;;;;;5.85;5.45;;;;;;;;;;5053446;28;20433;-82
2022/05/13 04:54:12;;;;;;;5.80;5.30;;;;;;;;;;5053428;28;20378;-82
2022/05/13 04:56:39;;;;;;;5.47;4.97;;;;;;;;;;5053160;28;20923;-82
2022/05/13 04:59:06;;;;;;;5.20;4.70;;;;;;;;;;5053347;28;20392;-82
2022/05/13 05:01:32;;;;;;;5.60;5.10;;;;;;;;;;5062260;28;20376;-82
2022/05/13 05:03:58;;;;;;;6.50;5.90;;;;;;;;;;5062780;28;20908;-82
2022/05/13 05:06:24;;;;;;;6.40;5.80;;;;;;;;;;5067392;28;20465;-82
2022/05/13 05:08:50;;;;;;;5.50;5.00;;;;;;;;;;5063218;28;20382;-82
2022/05/13 05:11:17;;;;;;;5.78;5.20;;;;;;;;;;5062473;28;20475;-83
2022/05/13 05:13:44;;;;;;;6.40;5.80;;;;;;;;;;5052124;28;20402;-82
2022/05/13 05:16:11;;;;;;;5.10;4.70;;;;;;;;;;5052929;28;20439;-82
2022/05/13 05:18:38;;;;;;;6.00;5.50;;;;;;;;;;5052751;28;20797;-83
2022/05/13 05:21:05;;;;;;;6.07;5.50;;;;;;;;;;5053099;28;20447;-83
2022/05/13 05:23:32;;;;;;;6.30;5.80;;;;;;;;;;5052935;28;20382;-82
2022/05/13 05:25:59;;;;;;;6.15;5.55;;;;;;;;;;5052554;28;20412;-82
2022/05/13 05:28:26;;;;;;;6.55;5.95;;;;;;;;;;5052732;28;20412;-82
2022/05/13 05:30:52;;;;;;;6.70;6.05;;;;;;;;;;5052722;28;20397;-82
2022/05/13 05:33:19;;;;;;;7.10;6.50;;;;;;;;;;5055096;28;20405;-82
2022/05/13 05:35:45;;;;;;;6.68;6.18;;;;;;;;;;5050137;28;20548;-82
2022/05/13 05:38:11;;;;;;;7.05;6.43;;;;;;;;;;5051127;28;20857;-82
2022/05/13 05:40:38;;;;;;;7.20;6.50;;;;;;;;;;5051298;28;20428;-82
2022/05/13 05:43:05;;;;;;;7.65;6.95;;;;;;;;;;5054643;28;20408;-82
2022/05/13 05:45:31;;;;;;;7.28;6.68;;;;;;;;;;5059678;28;20382;-81
2022/05/13 05:47:57;;;;;;;6.78;6.28;;;;;;;;;;5052166;28;20403;-82
2022/05/13 05:50:24;;;;;;;6.65;6.15;;;;;;;;;;5052387;28;20427;-83
2022/05/13 05:52:49;;;;;;;7.35;6.70;;;;;;;;;;5052542;28;20385;-83
2022/05/13 05:58:02;;;;;;;7.43;6.72;;;;;;;;;;5052319;28;20804;-84
2022/05/13 06:00:29;;;;;;;8.27;6.95;;;;;;;;;;5047630;28;20393;-84
2022/05/13 06:02:55;;;;;;;7.57;6.87;;;;;;;;;;5042315;28;20375;-84
2022/05/13 06:05:23;;;;;;;8.05;7.30;;;;;;;;;;5049398;28;20382;-84
2022/05/13 06:07:50;;;;;;;7.22;6.53;;;;;;;;;;5047010;28;20437;-85
2022/05/13 06:10:17;;;;;;;7.70;7.03;;;;;;;;;;5052185;28;20739;-84
2022/05/13 06:12:43;;;;;;;7.97;6.90;;;;;;;;;;5050622;28;20392;-84
2022/05/13 06:15:10;;;;;;;7.60;6.65;;;;;;;;;;5045346;28;20407;-84
2022/05/13 06:17:36;;;;;;;8.38;6.60;;;;;;;;;;5059565;28;20834;-84
2022/05/13 06:20:05;;;;;;;7.85;7.15;;;;;;;;;;5054369;28;20435;-84
2022/05/13 06:22:32;;;;;;;8.13;7.47;;;;;;;;;;5066550;28;20388;-85
2022/05/13 06:24:58;;;;;;;7.72;7.10;;;;;;;;;;5076703;28;20418;-84
2022/05/13 06:27:24;;;;;;;7.85;7.15;;;;;;;;;;5059348;28;20401;-84
2022/05/13 06:29:52;;;;;;;7.47;6.87;;;;;;;;;;5056826;28;20411;-84
2022/05/13 06:32:18;;;;;;;7.57;6.97;;;;;;;;;;5054012;28;20414;-84
2022/05/13 06:34:44;;;;;;;7.57;6.72;;;;;;;;;;5065965;28;20866;-84
2022/05/13 06:37:10;;;;;;;7.82;7.13;;;;;;;;;;5058697;28;20416;-85
2022/05/13 06:39:36;;;;;;;8.02;7.32;;;;;;;;;;5059293;28;20380;-84
2022/05/13 06:42:02;;;;;;;9.07;8.18;;;;;;;;;;5057013;28;20374;-84
2022/05/13 06:44:28;;;;;;;8.80;7.95;;;;;;;;;;5064356;28;20435;-83
2022/05/13 06:46:54;;;;;;;8.50;7.80;;;;;;;;;;5060801;28;20401;-84
2022/05/13 06:49:20;;;;;;;8.85;7.95;;;;;;;;;;5058374;28;20404;-84
2022/05/13 06:51:46;;;;;;;8.30;7.63;;;;;;;;;;5065288;28;20913;-83
2022/05/13 06:54:12;;;;;;;8.45;7.70;;;;;;;;;;5064569;28;20381;-83
2022/05/13 06:56:41;;;;;;;8.00;7.20;;;;;;;;;;5058232;28;20392;-83
2022/05/13 06:59:07;;;;;;;8.40;7.50;;;;;;;;;;5064252;28;20975;-84
2022/05/13 07:01:33;;;;;;;8.77;7.90;;;;;;;;;;5052542;28;20995;-84
2022/05/13 07:03:59;;;;;;;7.70;7.10;;;;;;;;;;5057283;28;20395;-83
2022/05/13 07:06:27;;;;;;;9.02;8.25;;;;;;;;;;5068038;28;20431;-84
2022/05/13 07:08:53;;;;;;;11.73;9.25;;;;;;;;;;5059859;28;20388;-83
2022/05/13 07:11:20;;;;;;;10.32;8.63;;;;;;;;;;5063809;28;20407;-83
2022/05/13 07:13:46;;;;;;;9.73;9.05;;;;;;;;;;5059478;28;20391;-83
2022/05/13 07:16:12;;;;;;;10.73;9.80;;;;;;;;;;5072071;28;20856;-83
2022/05/13 07:18:40;;;;;;;9.82;9.02;;;;;;;;;;5074419;28;20460;-83
2022/05/13 07:21:07;;;;;;;9.30;8.60;;;;;;;;;;5075556;28;20480;-83
2022/05/13 07:23:33;;;;;;;8.98;8.27;;;;;;;;;;5064336;28;20909;-83
2022/05/13 07:25:59;;;;;;;9.38;8.50;;;;;;;;;;5061436;28;20460;-83
2022/05/13 07:28:26;;;;;;;9.30;8.50;;;;;;;;;;5074711;28;20380;-83
2022/05/13 07:30:53;;;;;;;9.10;8.30;;;;;;;;;;5065781;28;20373;-83
2022/05/13 07:33:21;;;;;;;8.70;7.90;;;;;;;;;;5066386;28;20460;-83
2022/05/13 07:35:47;;;;;;;9.30;8.60;;;;;;;;;;5056806;28;20378;-83
2022/05/13 07:38:13;;;;;;;9.90;8.98;;;;;;;;;;5058266;28;20386;-83
2022/05/13 07:43:24;;;;;;;11.77;9.48;;;;;;;;;;5055033;28;20834;-83
2022/05/13 07:45:50;;;;;;;9.17;8.40;;;;;;;;;;5056182;28;20401;-83
2022/05/13 07:48:16;;;;;;;9.68;8.85;;;;;;;;;;5066729;28;20389;-84
2022/05/13 07:50:42;;;;;;;10.07;9.25;;;;;;;;;;5055298;28;20384;-83
2022/05/13 07:53:08;;;;;;;10.70;9.70;;;;;;;;;;5064967;28;20470;-83
2022/05/13 07:55:34;;;;;;;9.38;8.48;;;;;;;;;;5066959;28;20877;-84
2022/05/13 07:58:00;;;;;;;10.60;9.40;;;;;;;;;;5054276;28;20385;-83
2022/05/13 08:00:32;;;;;;;8.93;8.13;;;;;;;;;;5060490;28;20950;-84
2022/05/13 08:03:11;;;;;;;9.50;8.70;;;;;;;;;;5055447;28;20936;-83
2022/05/13 08:05:40;;;;;;;10.90;8.75;;;;;;;;;;5054530;28;20384;-84
2022/05/13 08:08:30;;;;;;;10.53;9.07;;;;;;;;;;5057546;28;20391;-84
2022/05/13 08:10:58;;;;;;;8.65;7.85;;;;;;;;;;5037692;28;20394;-84
2022/05/13 08:13:24;;;;;;;8.63;7.95;;;;;;;;;;5048668;28;20382;-83
2022/05/13 08:15:51;;;;;;;7.77;7.00;;;;;;;;;;5054479;28;20455;-83
2022/05/13 08:18:18;;;;;;;9.55;7.25;;;;;;;;;;5054067;28;20435;-82
2022/05/13 08:20:45;;;;;;;8.90;8.00;;;;;;;;;;5046205;28;20370;-82
2022/05/13 08:23:11;;;;;;;9.50;8.70;;;;;;;;;;5053439;28;20433;-82
2022/05/13 08:25:37;;;;;;;10.48;9.48;;;;;;;;;;5052617;28;20443;-82
2022/05/13 08:28:05;;;;;;;9.68;8.77;;;;;;;;;;5053799;28;20400;-82
2022/05/13 08:30:31;;;;;;;12.85;9.38;;;;;;;;;;5053883;28;20465;-82
2022/05/13 08:32:57;;;;;;;9.98;8.60;;;;;;;;;;5053763;28;20457;-81
2022/05/13 08:35:23;;;;;;;9.40;8.02;;;;;;;;;;5053832;28;20924;-81
2022/05/13 08:37:52;;;;;;;10.50;9.60;;;;;;;;;;5052105;28;20802;-83
2022/05/13 08:40:26;;;;;;;10.63;9.52;;;;;;;;;;5055380;28;20421;-81
2022/05/13 08:42:52;;;;;;;10.82;9.85;;;;;;;;;;5052384;28;20386;-81
2022/05/13 08:45:20;;;;;;;10.27;9.35;;;;;;;;;;5053585;28;20378;-81
2022/05/13 08:47:45;;;;;;;10.73;9.48;;;;;;;;;;5053528;28;20434;-80
2022/05/13 08:50:24;;;;;;;12.90;9.47;;;;;;;;;;5053483;28;20821;-80
2022/05/13 08:53:11;;;;;;;9.35;8.55;;;;;;;;;;5053676;28;20378;-81
2022/05/13 08:55:42;;;;;;;8.77;8.05;;;;;;;;;;5054028;28;20385;-81
2022/05/13 08:58:14;;;;;;;9.60;8.68;;;;;;;;;;5053167;28;20389;-81
2022/05/13 09:00:42;;;;;;;8.47;7.57;;;;;;;;;;5053316;28;20867;-81
2022/05/13 09:03:13;;;;;;;8.60;7.72;;;;;;;;;;5053350;28;20389;-82
2022/05/13 09:05:47;;;;;;;10.05;8.45;;;;;;;;;;5053228;28;20385;-81
2022/05/13 09:08:13;;;;;;;10.85;8.63;;;;;;;;;;5053550;28;20382;-81
2022/05/13 09:10:49;;;;;;;10.13;9.13;;;;;;;;;;5053031;28;20850;-81
2022/05/13 09:13:23;;;;;;;10.18;9.00;;;;;;;;;;5053226;28;20373;-81
2022/05/13 09:15:50;;;;;;;10.07;9.17;;;;;;;;;;5053493;28;20454;-81
2022/05/13 09:18:28;;;;;;;10.90;8.98;;;;;;;;;;5052911;28;20373;-81
2022/05/13 09:20:59;;;;;;;9.70;8.80;;;;;;;;;;5053603;28;20378;-81
2022/05/13 09:23:26;;;;;;;9.90;8.82;;;;;;;;;;5052893;28;20418;-81
2022/05/13 09:26:02;;;;;;;9.82;8.93;;;;;;;;;;5051277;28;20931;-82
2022/05/13 09:28:28;;;;;;;8.90;8.20;;;;;;;;;;5052868;28;20381;-82
2022/05/13 09:31:00;;;;;;;10.60;8.30;;;;;;;;;;5054260;28;20872;-81
2022/05/13 09:33:31;;;;;;;8.68;7.95;;;;;;;;;;5061556;28;20855;-82
2022/05/13 09:36:01;;;;;;;9.07;8.07;;;;;;;;;;5052780;28;20394;-81
2022/05/13 09:38:31;;;;;;;8.32;7.63;;;;;;;;;;5050765;28;20385;-81
2022/05/13 09:40:57;;;;;;;7.93;7.05;;;;;;;;;;5050170;28;20383;-81
2022/05/13 09:43:38;;;;;;;8.02;7.15;;;;;;;;;;5052612;28;20716;-81
2022/05/13 09:46:09;;;;;;;6.75;5.90;;;;;;;;;;5052670;28;20436;-81
2022/05/13 09:48:36;;;;;;;11.50;6.00;;;;;;;;;;5052498;28;20382;-81
2022/05/13 09:51:38;;;;;;;6.57;5.97;;;;;;;;;;5052875;28;20377;-81
2022/05/13 09:54:05;;;;;;;7.07;5.97;;;;;;;;;;4991485;28;20733;-80
2022/05/13 09:56:47;;;;;;;6.38;5.80;;;;;;;;;;5039891;28;20455;-80
2022/05/13 09:59:23;;;;;;;6.40;5.80;;;;;;;;;;5052281;28;20404;-80
2022/05/13 10:01:49;;;;;;;6.18;5.57;;;;;;;;;;5052380;28;20465;-80
2022/05/13 10:04:26;;;;;;;8.90;5.50;;;;;;;;;;5057602;28;20381;-80
2022/05/13 10:07:03;;;;;;;7.93;5.78;;;;;;;;;;5052117;28;20420;-80
2022/05/13 10:15:15;;;;;;;7.78;7.00;;;;;;;;;;5056562;28;20381;-82
2022/05/13 10:17:45;;;;;;;9.80;6.50;;;;;;;;;;5050811;28;20377;-81
2022/05/13 10:20:18;;;;;;;7.75;6.20;;;;;;;;;;5051882;28;20393;-82
2022/05/13 10:22:50;;;;;;;7.78;6.13;;;;;;;;;;5052117;28;20467;-82
2022/05/13 10:25:26;;;;;;;6.88;6.20;;;;;;;;;;5052009;28;20381;-82
2022/05/13 10:27:59;;;;;;;6.60;6.00;;;;;;;;;;5050346;28;20456;-82
2022/05/13 10:30:32;;;;;;;8.70;7.85;;;;;;;;;;5052202;28;20851;-82
2022/05/13 10:33:02;;;;;;;7.38;6.43;;;;;;;;;;5052569;28;20435;-82
2022/05/13 10:35:32;;;;;;;7.30;6.60;;;;;;;;;;5051997;28;20427;-82
2022/05/13 10:38:04;;;;;;;7.93;7.10;;;;;;;;;;5043043;28;20439;-82
2022/05/13 10:40:33;;;;;;;4.82;4.43;;;;;;;;;;5052027;28;20413;-82
2022/05/13 10:43:11;;;;;;;4.72;4.18;;;;;;;;;;5051748;28;20416;-82
2022/05/13 10:45:39;;;;;;;4.45;2.90;;;;;;;;;;5051877;28;20436;-82
2022/05/13 10:48:23;;;;;;;4.38;3.45;;;;;;;;;;5054285;28;20794;-82
2022/05/13 10:51:01;;;;;;;3.78;3.42;;;;;;;;;;5045670;28;20539;-84
2022/05/13 10:53:45;;;;;;;3.17;2.50;;;;;;;;;;5050385;28;20905;-84
2022/05/13 10:56:21;;;;;;;4.57;2.40;;;;;;;;;;5044220;28;20420;-83
2022/05/13 10:59:10;;;;;;;3.77;2.27;;;;;;;;;;5051529;28;20374;-83
2022/05/13 11:01:51;;;;;;;3.05;2.35;;;;;;;;;;5013019;28;20393;-84
2022/05/13 11:04:28;;;;;;;3.22;2.47;;;;;;;;;;5051270;28;20476;-83
2022/05/13 11:07:02;;;;;;;4.05;2.15;;;;;;;;;;5051517;28;20455;-85
2022/05/13 11:09:34;;;;;;;2.40;2.20;;;;;;;;;;5051368;28;20396;-86
2022/05/13 11:12:23;;;;;;;3.05;2.20;;;;;;;;;;5053123;28;20389;-83
2022/05/13 11:15:02;;;;;;;3.20;2.67;;;;;;;;;;5017946;28;20983;-85
2022/05/13 11:17:32;;;;;;;8.18;2.47;;;;;;;;;;5055664;28;20393;-85
2022/05/13 11:20:01;;;;;;;2.90;2.65;;;;;;;;;;5055330;28;20480;-84
2022/05/13 11:22:36;;;;;;;3.33;2.53;;;;;;;;;;5064608;28;20393;-85
2022/05/13 11:27:52;;;;;;;4.88;2.70;;;;;;;;;;5066419;28;20402;-85
2022/05/13 11:30:20;;;;;;;4.13;2.50;;;;;;;;;;5055169;28;20477;-85
2022/05/13 11:32:58;;;;;;;4.55;2.47;;;;;;;;;;5059372;28;20874;-85
2022/05/13 11:35:38;;;;;;;3.53;2.45;;;;;;;;;;5055758;28;20385;-84
2022/05/13 11:38:13;;;;;;;4.15;2.78;;;;;;;;;;5058189;28;20385;-85
2022/05/13 11:40:43;;;;;;;3.97;2.77;;;;;;;;;;5055387;28;20966;-85
2022/05/13 11:43:34;;;;;;;3.95;3.15;;;;;;;;;;5072170;28;20508;-84
2022/05/13 11:46:00;;;;;;;2.70;2.30;;;;;;;;;;5065893;28;20416;-85
2022/05/13 11:48:28;;;;;;;3.70;2.50;;;;;;;;;;5065893;28;20877;-85
2022/05/13 11:51:10;;;;;;;2.78;2.38;;;;;;;;;;5054868;28;20389;-84
2022/05/13 11:53:42;;;;;;;3.72;3.33;;;;;;;;;;5066049;28;20381;-87
2022/05/13 11:56:20;;;;;;;3.47;3.17;;;;;;;;;;5054595;28;20417;-85
2022/05/13 11:58:47;;;;;;;3.30;3.00;;;;;;;;;;5054622;28;20384;-86
2022/05/13 12:01:13;;;;;;;5.70;3.30;;;;;;;;;;5054529;28;20434;-85
2022/05/13 12:03:39;;;;;;;4.10;2.80;;;;;;;;;;5057232;28;20389;-85
2022/05/13 12:06:10;;;;;;;3.10;2.80;;;;;;;;;;5054678;28;20409;-85
2022/05/13 12:08:41;;;;;;;3.20;2.90;;;;;;;;;;5054359;28;20439;-85
2022/05/13 12:11:10;;;;;;;5.95;3.00;;;;;;;;;;5054416;28;20455;-85
2022/05/13 12:13:36;;;;;;;3.58;3.00;;;;;;;;;;5054312;28;20378;-85
2022/05/13 12:16:14;;;;;;;9.60;3.15;;;;;;;;;;5054697;28;20822;-86
2022/05/13 12:18:51;;;;;;;4.03;3.03;;;;;;;;;;5052133;28;20408;-85
2022/05/13 12:21:20;;;;;;;6.53;3.65;;;;;;;;;;5052280;28;20397;-85
2022/05/13 12:24:16;;;;;;;5.07;3.50;;;;;;;;;;5045037;28;20387;-86
2022/05/13 12:26:47;;;;;;;3.80;3.50;;;;;;;;;;5053389;28;20414;-86
2022/05/13 12:29:19;;;;;;;4.03;3.70;;;;;;;;;;5048635;28;20386;-85
2022/05/13 12:31:48;;;;;;;6.25;4.72;;;;;;;;;;5053984;28;20426;-85
2022/05/13 12:39:52;;;;;;;5.73;5.07;;;;;;;;;;5041963;28;20454;-85
2022/05/13 12:42:35;;;;;;;5.10;4.75;;;;;;;;;;5053753;28;20417;-85
2022/05/13 12:45:01;;;;;;;5.10;4.70;;;;;;;;;;5053982;28;20390;-85
2022/05/13 12:47:29;;;;;;;5.45;4.78;;;;;;;;;;5064370;28;20403;-85
2022/05/13 12:49:57;;;;;;;5.75;4.07;;;;;;;;;;5053184;28;20382;-85
2022/05/13 12:52:26;;;;;;;4.95;4.53;;;;;;;;;;5053242;28;20381;-86
2022/05/13 12:54:53;;;;;;;5.75;4.30;;;;;;;;;;5053222;28;20873;-86
2022/05/13 12:57:23;;;;;;;4.72;4.32;;;;;;;;;;5052861;28;20385;-87
2022/05/13 12:59:51;;;;;;;5.20;4.78;;;;;;;;;;5052911;28;20381;-86
2022/05/13 13:02:20;;;;;;;5.30;4.80;;;;;;;;;;5053257;28;20384;-85
2022/05/13 13:04:54;;;;;;;5.00;4.60;;;;;;;;;;5053344;28;20389;-85
2022/05/13 13:07:21;;;;;;;5.50;4.72;;;;;;;;;;5053330;28;20409;-86
2022/05/13 13:09:49;;;;;;;4.75;4.30;;;;;;;;;;5055865;28;20387;-87
2022/05/13 13:12:19;;;;;;;5.13;4.63;;;;;;;;;;5066095;28;20391;-85
2022/05/13 13:14:50;;;;;;;5.60;4.90;;;;;;;;;;5071176;28;20399;-86
2022/05/13 13:17:20;;;;;;;4.80;4.07;;;;;;;;;;5070217;28;20398;-87
2022/05/13 13:19:51;;;;;;;4.40;3.90;;;;;;;;;;5071415;28;20404;-86
2022/05/13 13:22:19;;;;;;;4.20;3.90;;;;;;;;;;5060687;28;20473;-87
2022/05/13 13:24:46;;;;;;;5.13;4.05;;;;;;;;;;5069515;28;20397;-86
2022/05/13 13:27:16;;;;;;;4.45;4.05;;;;;;;;;;5067305;28;20500;-86
2022/05/13 13:29:44;;;;;;;3.97;3.65;;;;;;;;;;5053103;28;20373;-86
2022/05/13 13:32:14;;;;;;;4.10;3.67;;;;;;;;;;5051916;28;20385;-87
2022/05/13 13:34:48;;;;;;;4.83;4.10;;;;;;;;;;5052824;28;20417;-85
2022/05/13 13:37:15;;;;;;;4.40;4.00;;;;;;;;;;5051532;28;20386;-85
2022/05/13 13:39:41;;;;;;;4.23;3.90;;;;;;;;;;5052843;28;20804;-86
2022/05/13 13:42:08;;;;;;;3.70;3.40;;;;;;;;;;5052613;28;20381;-86
2022/05/13 13:44:35;;;;;;;4.20;3.80;;;;;;;;;;5052605;28;20744;-86
2022/05/13 13:47:01;;;;;;;4.10;3.72;;;;;;;;;;5054957;28;20501;-87
2022/05/13 13:49:38;;;;;;;3.87;3.50;;;;;;;;;;5052451;28;20384;-87
2022/05/13 13:52:05;;;;;;;5.22;3.75;;;;;;;;;;5052844;28;20353;-86
2022/05/13 13:54:52;;;;;;;4.57;4.18;;;;;;;;;;5052533;28;20389;-85
2022/05/13 13:57:30;;;;;;;4.88;3.95;;;;;;;;;;5052359;28;20382;-86
2022/05/13 14:00:07;;;;;;;4.70;4.30;;;;;;;;;;5051752;28;20496;-88
2022/05/13 14:02:35;;;;;;;4.50;3.63;;;;;;;;;;5049408;28;20490;-87
2022/05/13 14:05:01;;;;;;;5.65;4.25;;;;;;;;;;5050254;28;20389;-88
2022/05/13 14:07:28;;;;;;;4.20;3.80;;;;;;;;;;5052591;28;20467;-87
2022/05/13 14:09:54;;;;;;;4.10;3.70;;;;;;;;;;5052591;28;20465;-87
2022/05/13 14:12:22;;;;;;;4.43;3.90;;;;;;;;;;5052075;28;20377;-87
2022/05/13 14:14:51;;;;;;;4.30;3.90;;;;;;;;;;5052240;28;20385;-85
2022/05/13 14:17:36;;;;;;;4.72;4.22;;;;;;;;;;5052687;28;20397;-87
2022/05/13 14:20:08;;;;;;;4.28;3.42;;;;;;;;;;5052566;28;20446;-86
2022/05/13 14:22:54;;;;;;;4.30;3.83;;;;;;;;;;5052237;28;20370;-86
2022/05/13 14:25:19;;;;;;;6.40;3.83;;;;;;;;;;5050626;28;20407;-86
2022/05/13 14:27:46;;;;;;;4.20;3.80;;;;;;;;;;5051910;28;20908;-85
2022/05/13 14:30:12;;;;;;;5.00;3.92;;;;;;;;;;5052288;28;20397;-86
2022/05/13 14:32:39;;;;;;;4.07;3.78;;;;;;;;;;5050150;28;20413;-85
2022/05/13 14:35:07;;;;;;;5.38;3.65;;;;;;;;;;5048603;28;20373;-85
2022/05/13 14:37:37;;;;;;;4.05;3.47;;;;;;;;;;5052263;28;20858;-86
2022/05/13 14:40:07;;;;;;;4.15;3.75;;;;;;;;;;5051907;28;20925;-86
2022/05/13 14:42:49;;;;;;;3.88;3.45;;;;;;;;;;5054859;28;20382;-86
2022/05/13 14:45:27;;;;;;;3.90;3.60;;;;;;;;;;5065641;28;20385;-86
2022/05/13 14:47:54;;;;;;;4.32;3.83;;;;;;;;;;5055713;28;20458;-87
2022/05/13 14:50:30;;;;;;;4.30;3.90;;;;;;;;;;5055788;28;20424;-85
2022/05/13 14:52:56;;;;;;;4.20;3.83;;;;;;;;;;5056126;28;20397;-86
2022/05/13 14:55:25;;;;;;;4.50;4.00;;;;;;;;;;5055866;28;20400;-85
2022/05/13 14:57:52;;;;;;;4.55;4.13;;;;;;;;;;5055563;28;20385;-87
2022/05/13 15:00:20;;;;;;;5.25;3.80;;;;;;;;;;5055790;28;20381;-86
2022/05/13 15:03:07;;;;;;;5.15;4.18;;;;;;;;;;5055299;28;20404;-87
2022/05/13 15:05:46;;;;;;;4.22;3.83;;;;;;;;;;5055602;28;20389;-84
2022/05/13 15:08:25;;;;;;;4.55;4.15;;;;;;;;;;5055366;28;20408;-84
2022/05/13 15:10:51;;;;;;;5.47;4.50;;;;;;;;;;5055574;28;20743;-84
2022/05/13 15:13:18;;;;;;;7.15;6.28;;;;;;;;;;5055312;28;20369;-85
2022/05/13 15:15:44;;;;;;;5.88;5.38;;;;;;;;;;5055492;28;20373;-85
2022/05/13 15:18:16;;;;;;;5.57;4.70;;;;;;;;;;5070341;28;20474;-85
2022/05/13 15:20:43;;;;;;;6.22;4.30;;;;;;;;;;5071366;28;20386;-86
2022/05/13 15:23:09;;;;;;;5.47;4.70;;;;;;;;;;5071063;28;20412;-86
2022/05/13 15:25:40;;;;;;;5.88;4.75;;;;;;;;;;5070020;28;20408;-83
2022/05/13 15:28:06;;;;;;;6.40;5.10;;;;;;;;;;5072289;28;20463;-85
2022/05/13 15:30:32;;;;;;;5.53;4.72;;;;;;;;;;5068752;28;20376;-86